Time;durP1;ratioP1;P1;durP2;ratioP2;P2;SDS_P1;SDS_P2;PMS_P1;PMS_P2;Temp;Humidity;BMP_temperature;BMP_pressure;BME280_temperature;BME280_humidity;BME280_pressure;Samples;Min_cycle;Max_cycle;Signal;HPM_P1;HPM_P2
2022/08/02 00:00:48;;;;;;;3.38;1.15;;;;;;;;;;5062538;28;20028;-61
2022/08/02 00:03:14;;;;;;;2.95;1.25;;;;;;;;;;5053319;28;20108;-61
2022/08/02 00:05:40;;;;;;;4.70;1.10;;;;;;;;;;5068116;28;20025;-60
2022/08/02 00:08:06;;;;;;;3.45;0.90;;;;;;;;;;5048037;28;20036;-61
2022/08/02 00:10:32;;;;;;;6.75;1.67;;;;;;;;;;5052692;28;20025;-60
2022/08/02 00:12:58;;;;;;;2.88;1.13;;;;;;;;;;5043551;28;20076;-61
2022/08/02 00:15:24;;;;;;;3.97;1.25;;;;;;;;;;5050094;28;20024;-61
2022/08/02 00:17:50;;;;;;;6.75;1.20;;;;;;;;;;5053267;28;20051;-60
2022/08/02 00:20:16;;;;;;;3.38;1.08;;;;;;;;;;5045790;28;20392;-61
2022/08/02 00:22:42;;;;;;;4.13;1.08;;;;;;;;;;5053722;28;20048;-61
2022/08/02 00:25:08;;;;;;;4.20;1.13;;;;;;;;;;5046103;28;20048;-61
2022/08/02 00:27:34;;;;;;;4.03;1.17;;;;;;;;;;5055209;28;20583;-61
2022/08/02 00:30:00;;;;;;;4.18;1.30;;;;;;;;;;5053967;28;20064;-61
2022/08/02 00:32:26;;;;;;;5.95;1.70;;;;;;;;;;5059851;28;20107;-61
2022/08/02 00:34:52;;;;;;;6.00;1.30;;;;;;;;;;5056742;28;20016;-60
2022/08/02 00:37:18;;;;;;;3.08;1.10;;;;;;;;;;5055499;28;20025;-60
2022/08/02 00:39:44;;;;;;;2.17;1.00;;;;;;;;;;5049123;28;20029;-61
2022/08/02 00:42:10;;;;;;;4.90;1.40;;;;;;;;;;5054066;28;20036;-60
2022/08/02 00:44:36;;;;;;;3.55;1.17;;;;;;;;;;5042370;28;20160;-61
2022/08/02 00:47:02;;;;;;;5.35;1.20;;;;;;;;;;5046128;28;20025;-61
2022/08/02 00:49:28;;;;;;;3.15;1.10;;;;;;;;;;5060483;28;20036;-61
2022/08/02 00:51:54;;;;;;;3.85;1.17;;;;;;;;;;5044520;28;20029;-61
2022/08/02 00:54:20;;;;;;;2.83;0.90;;;;;;;;;;5055065;28;20039;-61
2022/08/02 00:56:46;;;;;;;5.28;1.23;;;;;;;;;;5054754;28;20385;-61
2022/08/02 00:59:12;;;;;;;3.38;1.08;;;;;;;;;;5045453;28;20036;-60
2022/08/02 01:01:38;;;;;;;4.35;0.98;;;;;;;;;;5051485;28;20424;-61
2022/08/02 01:04:05;;;;;;;3.85;1.25;;;;;;;;;;5057675;28;20090;-61
2022/08/02 01:06:32;;;;;;;6.80;1.40;;;;;;;;;;5058222;28;20107;-62
2022/08/02 01:08:58;;;;;;;4.90;1.52;;;;;;;;;;5058849;28;20459;-60
2022/08/02 01:11:24;;;;;;;5.65;1.23;;;;;;;;;;5053372;28;20033;-61
2022/08/02 01:13:50;;;;;;;5.57;1.13;;;;;;;;;;5055072;28;20029;-61
2022/08/02 01:16:19;;;;;;;3.10;1.30;;;;;;;;;;5050273;28;20370;-61
2022/08/02 01:18:50;;;;;;;6.53;1.38;;;;;;;;;;5052559;28;20035;-60
2022/08/02 01:21:23;;;;;;;3.10;1.10;;;;;;;;;;5050827;28;20032;-61
2022/08/02 01:24:18;;;;;;;5.13;1.30;;;;;;;;;;5054008;28;20032;-61
2022/08/02 01:26:54;;;;;;;2.95;1.17;;;;;;;;;;4995387;28;20040;-60
2022/08/02 01:29:31;;;;;;;2.75;1.00;;;;;;;;;;5056829;28;20060;-60
2022/08/02 01:32:12;;;;;;;3.35;1.10;;;;;;;;;;5052858;28;20033;-60
2022/08/02 01:35:01;;;;;;;4.50;1.92;;;;;;;;;;5050896;28;20047;-61
2022/08/02 01:37:33;;;;;;;4.90;1.50;;;;;;;;;;5041969;28;20094;-61
2022/08/02 01:40:21;;;;;;;6.80;1.45;;;;;;;;;;5050320;28;20033;-61
2022/08/02 01:42:49;;;;;;;4.47;1.48;;;;;;;;;;5053459;28;20029;-61
2022/08/02 01:45:15;;;;;;;7.90;1.67;;;;;;;;;;5049714;28;20035;-60
2022/08/02 01:47:43;;;;;;;3.95;1.08;;;;;;;;;;5057594;28;20036;-61
2022/08/02 01:50:11;;;;;;;2.65;0.90;;;;;;;;;;5053400;28;20041;-60
2022/08/02 01:52:39;;;;;;;4.82;1.73;;;;;;;;;;5056250;28;20152;-61
2022/08/02 01:55:10;;;;;;;8.63;1.42;;;;;;;;;;5048769;28;20048;-61
2022/08/02 01:57:46;;;;;;;3.95;1.10;;;;;;;;;;5052813;28;20485;-61
2022/08/02 02:00:13;;;;;;;3.85;1.23;;;;;;;;;;5048877;28;20029;-60
2022/08/02 02:02:41;;;;;;;6.57;1.35;;;;;;;;;;5062628;28;20053;-61
2022/08/02 02:05:10;;;;;;;3.90;1.23;;;;;;;;;;5051866;28;20029;-61
2022/08/02 02:07:37;;;;;;;3.10;1.02;;;;;;;;;;5052923;28;20035;-61
2022/08/02 02:10:04;;;;;;;3.65;1.08;;;;;;;;;;5040295;28;20039;-60
2022/08/02 02:12:31;;;;;;;6.03;1.40;;;;;;;;;;5048139;28;20052;-61
2022/08/02 02:14:58;;;;;;;3.45;1.42;;;;;;;;;;5056868;28;20421;-60
2022/08/02 02:17:24;;;;;;;4.68;1.25;;;;;;;;;;5057442;28;20021;-60
2022/08/02 02:19:50;;;;;;;2.22;1.30;;;;;;;;;;5051165;28;20017;-61
2022/08/02 02:22:16;;;;;;;5.15;1.60;;;;;;;;;;5052097;28;20033;-60
2022/08/02 02:24:42;;;;;;;4.00;1.30;;;;;;;;;;5046915;28;20388;-60
2022/08/02 02:27:11;;;;;;;3.70;1.50;;;;;;;;;;5053115;28;20112;-61
2022/08/02 02:29:39;;;;;;;5.00;1.50;;;;;;;;;;5050128;28;20555;-61
2022/08/02 02:32:05;;;;;;;5.38;1.60;;;;;;;;;;5050774;28;20033;-60
2022/08/02 02:34:33;;;;;;;3.03;1.40;;;;;;;;;;5063343;28;20031;-61
2022/08/02 02:37:02;;;;;;;6.78;1.63;;;;;;;;;;5053357;28;20053;-61
2022/08/02 02:39:28;;;;;;;6.38;1.40;;;;;;;;;;5063988;28;20067;-60
2022/08/02 02:41:56;;;;;;;6.47;2.10;;;;;;;;;;5046347;28;20061;-60
2022/08/02 02:44:22;;;;;;;4.95;1.63;;;;;;;;;;5048125;28;20495;-60
2022/08/02 02:46:49;;;;;;;4.75;1.60;;;;;;;;;;5052565;28;20095;-60
2022/08/02 02:49:17;;;;;;;3.58;1.70;;;;;;;;;;5051036;28;20113;-60
2022/08/02 02:51:44;;;;;;;4.72;1.48;;;;;;;;;;5052422;28;20055;-60
2022/08/02 02:54:11;;;;;;;5.47;1.75;;;;;;;;;;5059042;28;20051;-60
2022/08/02 02:56:38;;;;;;;5.10;1.73;;;;;;;;;;5047203;28;20037;-60
2022/08/02 02:59:04;;;;;;;1.98;1.23;;;;;;;;;;5064049;28;20044;-60
2022/08/02 03:01:30;;;;;;;5.57;1.65;;;;;;;;;;5053385;28;20113;-61
2022/08/02 03:04:05;;;;;;;5.30;1.38;;;;;;;;;;5050598;28;20545;-61
2022/08/02 03:06:31;;;;;;;3.47;1.35;;;;;;;;;;5054338;28;20029;-60
2022/08/02 03:08:57;;;;;;;5.63;1.73;;;;;;;;;;5050707;28;20452;-61
2022/08/02 03:11:24;;;;;;;5.00;1.40;;;;;;;;;;5054739;28;20043;-60
2022/08/02 03:13:50;;;;;;;7.50;1.73;;;;;;;;;;5050687;28;20025;-60
2022/08/02 03:16:16;;;;;;;6.15;2.00;;;;;;;;;;5052872;28;20033;-60
2022/08/02 03:18:43;;;;;;;8.45;1.65;;;;;;;;;;5056190;28;20025;-60
2022/08/02 03:21:10;;;;;;;3.75;1.38;;;;;;;;;;5058275;28;20031;-61
2022/08/02 03:23:37;;;;;;;4.38;1.60;;;;;;;;;;5050722;28;20029;-60
2022/08/02 03:26:03;;;;;;;6.47;1.80;;;;;;;;;;5063673;28;20356;-61
2022/08/02 03:28:29;;;;;;;5.90;1.60;;;;;;;;;;5049235;28;20033;-61
2022/08/02 03:30:55;;;;;;;8.57;1.40;;;;;;;;;;5053568;28;20105;-60
2022/08/02 03:33:21;;;;;;;6.97;1.70;;;;;;;;;;5048265;28;20452;-60
2022/08/02 03:35:48;;;;;;;5.85;1.48;;;;;;;;;;5048134;28;20035;-60
2022/08/02 03:38:15;;;;;;;5.10;1.55;;;;;;;;;;5051288;28;20025;-60
2022/08/02 03:40:42;;;;;;;2.88;1.42;;;;;;;;;;5056295;28;20081;-60
2022/08/02 03:43:09;;;;;;;4.35;1.55;;;;;;;;;;5053171;28;20550;-60
2022/08/02 03:45:35;;;;;;;3.75;1.45;;;;;;;;;;5044571;28;20147;-60
2022/08/02 03:48:03;;;;;;;2.22;1.60;;;;;;;;;;5058697;28;20031;-60
2022/08/02 03:50:28;;;;;;;4.50;1.75;;;;;;;;;;5047123;28;20028;-60
2022/08/02 03:52:55;;;;;;;5.60;1.92;;;;;;;;;;5064954;28;20567;-60
2022/08/02 03:55:21;;;;;;;4.32;1.45;;;;;;;;;;5056879;28;20423;-60
2022/08/02 03:57:47;;;;;;;5.55;1.58;;;;;;;;;;5051753;28;20125;-60
2022/08/02 04:00:17;;;;;;;5.18;1.30;;;;;;;;;;5054835;28;20029;-60
2022/08/02 04:02:43;;;;;;;4.78;1.70;;;;;;;;;;5050185;28;20029;-60
2022/08/02 04:05:09;;;;;;;6.28;1.70;;;;;;;;;;5047877;28;20036;-61
2022/08/02 04:07:35;;;;;;;5.03;1.63;;;;;;;;;;5059082;28;20028;-61
2022/08/02 04:10:01;;;;;;;4.43;1.48;;;;;;;;;;5052139;28;20025;-60
2022/08/02 04:12:27;;;;;;;5.15;2.00;;;;;;;;;;5059230;28;20112;-60
2022/08/02 04:14:53;;;;;;;5.95;1.45;;;;;;;;;;5052628;28;20465;-60
2022/08/02 04:17:19;;;;;;;4.57;1.42;;;;;;;;;;5056567;28;20031;-60
2022/08/02 04:20:09;;;;;;;7.38;2.10;;;;;;;;;;5053318;28;20043;-60
2022/08/02 04:22:37;;;;;;;5.20;1.67;;;;;;;;;;5042634;28;20069;-60
2022/08/02 04:25:05;;;;;;;4.65;1.52;;;;;;;;;;5056393;28;20104;-61
2022/08/02 04:27:31;;;;;;;7.60;1.85;;;;;;;;;;5056021;28;20029;-60
2022/08/02 04:29:57;;;;;;;6.78;1.65;;;;;;;;;;5058460;28;20096;-60
2022/08/02 04:32:23;;;;;;;6.53;1.58;;;;;;;;;;5053919;28;20024;-60
2022/08/02 04:34:49;;;;;;;4.32;1.90;;;;;;;;;;5052471;28;20025;-61
2022/08/02 04:37:15;;;;;;;5.78;1.58;;;;;;;;;;5062954;28;20025;-60
2022/08/02 04:39:41;;;;;;;6.40;1.88;;;;;;;;;;5053322;28;20104;-60
2022/08/02 04:42:07;;;;;;;8.13;1.92;;;;;;;;;;5053868;28;20372;-60
2022/08/02 04:44:33;;;;;;;4.40;1.42;;;;;;;;;;5061946;28;20115;-60
2022/08/02 04:47:01;;;;;;;6.72;2.08;;;;;;;;;;5055323;28;20029;-60
2022/08/02 04:49:27;;;;;;;8.80;2.00;;;;;;;;;;5052826;28;20059;-61
2022/08/02 04:51:53;;;;;;;11.18;2.20;;;;;;;;;;5063527;28;20577;-61
2022/08/02 04:54:20;;;;;;;5.55;1.67;;;;;;;;;;5053043;28;20025;-60
2022/08/02 04:56:46;;;;;;;8.57;2.33;;;;;;;;;;5053901;28;20036;-60
2022/08/02 04:59:12;;;;;;;7.35;1.90;;;;;;;;;;5054952;28;20395;-60
2022/08/02 05:01:38;;;;;;;6.82;2.17;;;;;;;;;;5049298;28;20385;-61
2022/08/02 05:04:04;;;;;;;6.28;1.75;;;;;;;;;;5056587;28;20029;-61
2022/08/02 05:06:31;;;;;;;8.68;1.92;;;;;;;;;;5051296;28;20473;-61
2022/08/02 05:08:57;;;;;;;11.77;2.20;;;;;;;;;;5055423;28;20033;-61
2022/08/02 05:11:24;;;;;;;8.60;2.40;;;;;;;;;;5058183;28;20503;-60
2022/08/02 05:13:50;;;;;;;7.60;2.85;;;;;;;;;;5059702;28;20032;-60
2022/08/02 05:16:16;;;;;;;7.75;1.92;;;;;;;;;;5062177;28;20404;-60
2022/08/02 05:18:42;;;;;;;5.57;2.20;;;;;;;;;;5041521;28;20551;-60
2022/08/02 05:21:09;;;;;;;6.45;1.80;;;;;;;;;;5046485;28;20132;-60
2022/08/02 05:23:35;;;;;;;6.82;2.28;;;;;;;;;;5051819;28;20108;-60
2022/08/02 05:26:01;;;;;;;4.57;1.90;;;;;;;;;;5043560;28;20040;-60
2022/08/02 05:28:27;;;;;;;7.07;2.08;;;;;;;;;;5035223;28;20033;-61
2022/08/02 05:30:53;;;;;;;8.55;2.28;;;;;;;;;;5050416;28;20026;-60
2022/08/02 05:33:19;;;;;;;3.65;1.67;;;;;;;;;;5055862;28;20037;-60
2022/08/02 05:35:45;;;;;;;5.97;1.95;;;;;;;;;;5045532;28;20029;-61
2022/08/02 05:38:11;;;;;;;3.20;1.45;;;;;;;;;;5050867;28;20060;-60
2022/08/02 05:40:37;;;;;;;4.38;1.60;;;;;;;;;;5049231;28;20063;-61
2022/08/02 05:43:10;;;;;;;5.65;2.17;;;;;;;;;;5055411;28;20029;-60
2022/08/02 05:45:36;;;;;;;8.45;2.03;;;;;;;;;;5055662;28;20036;-60
2022/08/02 05:48:02;;;;;;;9.10;2.15;;;;;;;;;;5051859;28;20037;-60
2022/08/02 05:50:28;;;;;;;6.80;1.90;;;;;;;;;;5048073;28;20115;-61
2022/08/02 05:53:03;;;;;;;7.40;2.13;;;;;;;;;;5049859;28;20029;-60
2022/08/02 05:55:32;;;;;;;6.28;1.92;;;;;;;;;;5052344;28;20503;-60
2022/08/02 05:58:06;;;;;;;12.07;1.92;;;;;;;;;;5052490;28;20041;-61
2022/08/02 06:00:35;;;;;;;10.48;2.08;;;;;;;;;;5046422;28;20488;-61
2022/08/02 06:03:04;;;;;;;6.95;1.67;;;;;;;;;;5058869;28;20017;-60
2022/08/02 06:05:34;;;;;;;5.18;1.80;;;;;;;;;;5046634;28;20124;-61
2022/08/02 06:08:01;;;;;;;4.88;1.90;;;;;;;;;;5062306;28;20424;-61
2022/08/02 06:10:28;;;;;;;5.70;1.67;;;;;;;;;;5042561;28;20074;-60
2022/08/02 06:12:59;;;;;;;9.57;2.42;;;;;;;;;;5045005;28;20037;-60
2022/08/02 06:15:26;;;;;;;6.63;1.70;;;;;;;;;;5049724;28;20405;-61
2022/08/02 06:17:52;;;;;;;7.55;2.30;;;;;;;;;;5044445;28;20029;-61
2022/08/02 06:20:19;;;;;;;6.55;1.60;;;;;;;;;;5047281;28;20029;-60
2022/08/02 06:22:45;;;;;;;7.65;1.88;;;;;;;;;;5043013;28;20032;-61
2022/08/02 06:25:12;;;;;;;4.32;1.83;;;;;;;;;;5051022;28;20100;-61
2022/08/02 06:27:39;;;;;;;8.85;1.88;;;;;;;;;;5047561;28;20076;-61
2022/08/02 06:30:06;;;;;;;7.88;2.22;;;;;;;;;;5048443;28;20111;-61
2022/08/02 06:32:33;;;;;;;11.65;2.63;;;;;;;;;;5044702;28;20481;-61
2022/08/02 06:34:59;;;;;;;6.55;1.80;;;;;;;;;;5049953;28;20535;-61
2022/08/02 06:37:25;;;;;;;10.43;1.90;;;;;;;;;;5051056;28;20033;-61
2022/08/02 06:39:52;;;;;;;8.65;1.75;;;;;;;;;;5043613;28;20035;-60
2022/08/02 06:42:21;;;;;;;4.72;1.75;;;;;;;;;;5043937;28;20087;-61
2022/08/02 06:44:48;;;;;;;7.40;1.70;;;;;;;;;;5051105;28;20043;-61
2022/08/02 06:47:14;;;;;;;8.05;1.80;;;;;;;;;;5061901;28;20115;-61
2022/08/02 06:49:41;;;;;;;7.93;2.35;;;;;;;;;;5053829;28;20490;-61
2022/08/02 06:52:06;;;;;;;4.85;1.45;;;;;;;;;;5047475;28;20396;-61
2022/08/02 06:54:34;;;;;;;8.80;1.55;;;;;;;;;;5048685;28;20021;-61
2022/08/02 06:57:00;;;;;;;5.70;1.70;;;;;;;;;;5053133;28;20700;-62
2022/08/02 06:59:27;;;;;;;8.07;2.38;;;;;;;;;;5059614;28;20060;-61
2022/08/02 07:01:54;;;;;;;4.80;1.35;;;;;;;;;;5049809;28;20546;-60
2022/08/02 07:04:20;;;;;;;3.22;1.02;;;;;;;;;;5045578;28;20082;-61
2022/08/02 07:06:46;;;;;;;6.20;1.35;;;;;;;;;;5036675;28;20151;-61
2022/08/02 07:09:12;;;;;;;12.82;1.55;;;;;;;;;;5040190;28;20602;-61
2022/08/02 07:11:38;;;;;;;9.63;1.85;;;;;;;;;;5046020;28;20023;-61
2022/08/02 07:14:04;;;;;;;5.10;1.58;;;;;;;;;;5051320;28;20020;-61
2022/08/02 07:16:30;;;;;;;6.53;1.77;;;;;;;;;;5046814;28;20199;-61
2022/08/02 07:18:56;;;;;;;7.90;1.58;;;;;;;;;;5042754;28;20029;-61
2022/08/02 07:21:22;;;;;;;6.07;1.42;;;;;;;;;;5037559;28;20032;-61
2022/08/02 07:23:48;;;;;;;4.65;1.67;;;;;;;;;;5049125;28;20033;-61
2022/08/02 07:26:14;;;;;;;5.70;1.33;;;;;;;;;;5050810;28;20155;-62
2022/08/02 07:28:40;;;;;;;5.50;1.50;;;;;;;;;;5049218;28;20029;-62
2022/08/02 07:31:06;;;;;;;8.82;1.50;;;;;;;;;;5047259;28;20028;-62
2022/08/02 07:33:31;;;;;;;11.23;1.85;;;;;;;;;;5049693;28;20558;-62
2022/08/02 07:35:57;;;;;;;4.68;1.23;;;;;;;;;;5042191;28;20048;-62
2022/08/02 07:38:23;;;;;;;6.70;1.40;;;;;;;;;;5048895;28;20033;-61
2022/08/02 07:40:50;;;;;;;6.78;1.55;;;;;;;;;;5046817;28;20166;-61
2022/08/02 07:43:16;;;;;;;8.65;1.35;;;;;;;;;;5047229;28;20113;-62
2022/08/02 07:45:42;;;;;;;7.57;1.17;;;;;;;;;;5049231;28;20032;-62
2022/08/02 07:48:08;;;;;;;5.10;1.30;;;;;;;;;;5062621;28;20119;-61
2022/08/02 07:50:34;;;;;;;7.38;1.23;;;;;;;;;;5050954;28;20036;-62
2022/08/02 07:53:00;;;;;;;8.35;1.25;;;;;;;;;;5050505;28;20032;-62
2022/08/02 07:55:26;;;;;;;7.55;1.33;;;;;;;;;;5049702;28;20099;-61
2022/08/02 07:57:52;;;;;;;12.93;2.65;;;;;;;;;;5040324;28;20065;-61
2022/08/02 08:00:18;;;;;;;6.45;1.10;;;;;;;;;;5055118;28;20025;-61
2022/08/02 08:02:45;;;;;;;2.50;1.27;;;;;;;;;;5053034;28;20115;-61
2022/08/02 08:05:11;;;;;;;3.95;1.40;;;;;;;;;;5053613;28;20025;-61
2022/08/02 08:07:37;;;;;;;8.75;1.63;;;;;;;;;;5053732;28;20025;-62
2022/08/02 08:10:04;;;;;;;3.80;1.15;;;;;;;;;;5048742;28;20937;-61
2022/08/02 08:12:30;;;;;;;5.22;1.23;;;;;;;;;;5047748;28;20031;-62
2022/08/02 08:14:56;;;;;;;5.78;1.10;;;;;;;;;;5058478;28;20017;-61
2022/08/02 08:17:22;;;;;;;5.18;1.20;;;;;;;;;;5062260;28;20032;-61
2022/08/02 08:19:48;;;;;;;6.43;1.13;;;;;;;;;;5053204;28;20033;-61
2022/08/02 08:22:14;;;;;;;9.02;1.30;;;;;;;;;;5051472;28;20040;-62
2022/08/02 08:24:40;;;;;;;7.97;1.33;;;;;;;;;;5042884;28;20044;-61
2022/08/02 08:27:09;;;;;;;5.57;0.95;;;;;;;;;;5050723;28;20021;-59
2022/08/02 08:29:35;;;;;;;4.97;1.00;;;;;;;;;;5048542;28;20040;-60
2022/08/02 08:32:01;;;;;;;5.03;0.88;;;;;;;;;;5055690;28;20033;-61
2022/08/02 08:34:30;;;;;;;3.83;0.85;;;;;;;;;;5044656;28;20514;-62
2022/08/02 08:36:56;;;;;;;3.05;0.70;;;;;;;;;;5042201;28;20025;-61
2022/08/02 08:39:22;;;;;;;7.05;1.30;;;;;;;;;;5047427;28;20017;-61
2022/08/02 08:41:48;;;;;;;3.67;0.85;;;;;;;;;;5052088;28;21183;-61
2022/08/02 08:44:13;;;;;;;2.85;0.75;;;;;;;;;;5053503;28;20060;-61
2022/08/02 08:46:42;;;;;;;4.50;0.75;;;;;;;;;;5050090;28;20096;-61
2022/08/02 08:49:10;;;;;;;4.00;1.05;;;;;;;;;;5044480;28;20997;-61
2022/08/02 08:51:37;;;;;;;8.40;1.33;;;;;;;;;;5045985;28;20025;-61
2022/08/02 08:54:03;;;;;;;4.53;0.85;;;;;;;;;;5047188;28;20440;-61
2022/08/02 08:56:32;;;;;;;4.25;0.75;;;;;;;;;;5061146;28;20080;-61
2022/08/02 08:58:58;;;;;;;4.47;0.80;;;;;;;;;;5059260;28;20554;-61
2022/08/02 09:01:24;;;;;;;7.22;1.23;;;;;;;;;;5051272;28;20028;-61
2022/08/02 09:03:50;;;;;;;2.78;0.90;;;;;;;;;;5042890;28;20032;-61
2022/08/02 09:06:16;;;;;;;3.22;1.00;;;;;;;;;;5044103;28;20036;-61
2022/08/02 09:08:42;;;;;;;5.55;1.13;;;;;;;;;;5039830;28;20029;-60
2022/08/02 09:11:15;;;;;;;2.28;0.85;;;;;;;;;;5046984;28;20021;-61
2022/08/02 09:13:57;;;;;;;5.07;1.20;;;;;;;;;;5058081;28;20048;-62
2022/08/02 09:16:31;;;;;;;2.65;0.85;;;;;;;;;;5039066;28;20024;-62
2022/08/02 09:18:58;;;;;;;4.90;1.15;;;;;;;;;;5046723;28;20029;-61
2022/08/02 09:21:24;;;;;;;5.85;1.10;;;;;;;;;;5057845;28;20025;-61
2022/08/02 09:23:51;;;;;;;5.28;0.98;;;;;;;;;;5049159;28;20033;-61
2022/08/02 09:26:18;;;;;;;10.07;1.13;;;;;;;;;;5053972;28;20048;-61
2022/08/02 09:28:45;;;;;;;6.22;0.93;;;;;;;;;;5051404;28;20452;-61
2022/08/02 09:31:12;;;;;;;6.18;1.10;;;;;;;;;;5055192;28;20032;-60
2022/08/02 09:33:39;;;;;;;2.67;0.77;;;;;;;;;;5051606;28;20025;-61
2022/08/02 09:36:06;;;;;;;4.38;1.10;;;;;;;;;;5051032;28;20032;-61
2022/08/02 09:38:32;;;;;;;5.70;1.02;;;;;;;;;;5049907;28;20123;-61
2022/08/02 09:40:59;;;;;;;7.82;1.20;;;;;;;;;;5045317;28;20039;-61
2022/08/02 09:43:38;;;;;;;4.85;1.00;;;;;;;;;;5051074;28;20037;-61
2022/08/02 09:46:31;;;;;;;4.05;0.98;;;;;;;;;;5047482;28;20454;-61
2022/08/02 09:49:01;;;;;;;4.03;0.90;;;;;;;;;;5040033;28;20091;-61
2022/08/02 09:51:28;;;;;;;5.82;1.05;;;;;;;;;;5051369;28;20524;-61
2022/08/02 09:53:55;;;;;;;4.47;0.93;;;;;;;;;;5051833;28;20037;-60
2022/08/02 09:56:22;;;;;;;4.40;0.90;;;;;;;;;;5051731;28;20083;-61
2022/08/02 09:58:48;;;;;;;4.80;0.93;;;;;;;;;;5060712;28;20179;-61
2022/08/02 10:01:14;;;;;;;4.55;1.10;;;;;;;;;;5041606;28;20392;-61
2022/08/02 10:03:54;;;;;;;5.03;1.30;;;;;;;;;;5051290;28;20510;-61
2022/08/02 10:06:20;;;;;;;2.83;0.90;;;;;;;;;;5045094;28;20124;-60
2022/08/02 10:08:46;;;;;;;4.20;0.82;;;;;;;;;;5049712;28;20108;-61
2022/08/02 10:11:12;;;;;;;7.60;1.63;;;;;;;;;;5049615;28;20119;-61
2022/08/02 10:13:38;;;;;;;6.60;1.83;;;;;;;;;;5046269;28;20380;-60
2022/08/02 10:16:05;;;;;;;3.90;0.95;;;;;;;;;;5050394;28;20045;-59
2022/08/02 10:18:31;;;;;;;3.55;0.88;;;;;;;;;;5049143;28;20481;-61
2022/08/02 10:20:59;;;;;;;4.82;1.20;;;;;;;;;;5050924;28;20025;-60
2022/08/02 10:23:26;;;;;;;4.78;0.95;;;;;;;;;;5049030;28;20025;-61
2022/08/02 10:25:53;;;;;;;4.00;1.13;;;;;;;;;;5038943;28;20029;-61
2022/08/02 10:28:20;;;;;;;2.83;0.75;;;;;;;;;;5043414;28;20094;-61
2022/08/02 10:30:47;;;;;;;3.72;1.10;;;;;;;;;;5037415;28;20044;-61
2022/08/02 10:33:16;;;;;;;5.30;1.00;;;;;;;;;;5042449;28;20132;-62
2022/08/02 10:35:43;;;;;;;4.93;1.63;;;;;;;;;;5063067;28;20084;-61
2022/08/02 10:38:11;;;;;;;4.40;1.23;;;;;;;;;;5051226;28;20095;-60
2022/08/02 10:40:47;;;;;;;6.70;1.10;;;;;;;;;;5045649;28;20079;-61
2022/08/02 10:43:33;;;;;;;11.18;1.30;;;;;;;;;;5044305;28;20025;-61
2022/08/02 10:46:17;;;;;;;3.35;0.95;;;;;;;;;;5063611;28;20072;-61
2022/08/02 10:49:02;;;;;;;3.35;0.80;;;;;;;;;;5067307;28;20032;-61
2022/08/02 10:51:46;;;;;;;3.53;0.80;;;;;;;;;;5061448;28;20044;-61
2022/08/02 10:54:18;;;;;;;4.95;1.17;;;;;;;;;;5066968;28;20119;-62
2022/08/02 10:56:48;;;;;;;7.30;1.00;;;;;;;;;;5065852;28;20036;-61
2022/08/02 10:59:24;;;;;;;5.45;1.13;;;;;;;;;;5070583;28;20044;-61
2022/08/02 11:01:50;;;;;;;2.38;0.73;;;;;;;;;;5068319;28;20403;-61
2022/08/02 11:04:16;;;;;;;2.70;0.77;;;;;;;;;;5057475;28;20029;-61
2022/08/02 11:07:01;;;;;;;5.47;0.70;;;;;;;;;;5064412;28;20035;-62
2022/08/02 11:09:28;;;;;;;2.63;0.60;;;;;;;;;;5063364;28;20103;-61
2022/08/02 11:12:02;;;;;;;2.50;0.93;;;;;;;;;;5072595;28;20427;-61
2022/08/02 11:14:28;;;;;;;7.60;1.08;;;;;;;;;;5069049;28;20025;-61
2022/08/02 11:16:57;;;;;;;4.85;0.95;;;;;;;;;;5072736;28;20020;-61
2022/08/02 11:19:23;;;;;;;3.65;1.15;;;;;;;;;;5066098;28;20025;-61
2022/08/02 11:22:05;;;;;;;3.05;0.68;;;;;;;;;;5063176;28;20029;-61
2022/08/02 11:24:38;;;;;;;5.18;0.82;;;;;;;;;;5062931;28;20504;-61
2022/08/02 11:27:05;;;;;;;1.95;0.93;;;;;;;;;;5072964;28;20107;-61
2022/08/02 11:29:32;;;;;;;7.30;1.08;;;;;;;;;;5074919;28;20032;-61
2022/08/02 11:31:59;;;;;;;1.80;0.60;;;;;;;;;;5074332;28;20043;-61
2022/08/02 11:34:25;;;;;;;5.13;1.00;;;;;;;;;;5074681;28;20100;-61
2022/08/02 11:36:51;;;;;;;3.17;1.00;;;;;;;;;;5074453;28;20031;-61
2022/08/02 11:39:20;;;;;;;3.03;0.93;;;;;;;;;;5079943;28;20539;-61
2022/08/02 11:41:50;;;;;;;5.40;0.90;;;;;;;;;;5076489;28;20024;-61
2022/08/02 11:44:16;;;;;;;5.07;1.55;;;;;;;;;;5069264;28;20024;-61
2022/08/02 11:46:42;;;;;;;2.65;0.70;;;;;;;;;;5069845;28;20040;-62
2022/08/02 11:49:13;;;;;;;5.07;0.95;;;;;;;;;;5072609;28;20139;-60
2022/08/02 11:51:50;;;;;;;2.92;0.80;;;;;;;;;;5073098;28;20104;-60
2022/08/02 11:54:22;;;;;;;5.70;1.15;;;;;;;;;;5069184;28;20050;-61
2022/08/02 11:56:48;;;;;;;4.28;0.90;;;;;;;;;;5066875;28;20025;-61
2022/08/02 11:59:13;;;;;;;2.50;0.77;;;;;;;;;;5066569;28;20025;-61
2022/08/02 12:01:39;;;;;;;7.25;1.20;;;;;;;;;;5066034;28;20063;-61
2022/08/02 12:04:06;;;;;;;3.85;1.00;;;;;;;;;;5085374;28;20032;-61
2022/08/02 12:06:33;;;;;;;5.35;1.05;;;;;;;;;;5076150;28;20024;-60
2022/08/02 12:08:59;;;;;;;3.78;1.08;;;;;;;;;;5073147;28;20031;-61
2022/08/02 12:11:25;;;;;;;2.05;0.85;;;;;;;;;;5083070;28;20028;-61
2022/08/02 12:13:51;;;;;;;7.90;1.70;;;;;;;;;;5057151;28;20028;-61
2022/08/02 12:19:17;;;;;;;5.07;1.00;;;;;;;;;;5066964;28;20038;-61
2022/08/02 12:21:43;;;;;;;2.80;0.80;;;;;;;;;;5054941;28;20024;-61
2022/08/02 12:24:10;;;;;;;5.70;1.20;;;;;;;;;;5072292;28;20025;-61
2022/08/02 12:26:43;;;;;;;4.65;0.85;;;;;;;;;;5061725;28;20617;-61
2022/08/02 12:29:10;;;;;;;4.07;0.95;;;;;;;;;;5071248;28;20107;-61
2022/08/02 12:31:46;;;;;;;5.50;1.15;;;;;;;;;;5070070;28;20039;-63
2022/08/02 12:34:17;;;;;;;2.03;0.80;;;;;;;;;;5072668;28;20117;-61
2022/08/02 12:36:44;;;;;;;3.78;0.95;;;;;;;;;;5059912;28;20477;-61
2022/08/02 12:39:13;;;;;;;2.90;0.98;;;;;;;;;;5073660;28;20028;-61
2022/08/02 12:41:40;;;;;;;3.60;1.00;;;;;;;;;;5070564;28;20021;-61
2022/08/02 12:44:14;;;;;;;2.15;0.80;;;;;;;;;;5074185;28;20033;-61
2022/08/02 12:46:40;;;;;;;2.83;1.05;;;;;;;;;;5073345;28;20029;-61
2022/08/02 12:49:15;;;;;;;3.58;0.98;;;;;;;;;;5073400;28;20369;-61
2022/08/02 12:51:41;;;;;;;7.90;0.80;;;;;;;;;;5072960;28;20380;-61
2022/08/02 12:54:12;;;;;;;2.58;0.70;;;;;;;;;;5072988;28;20096;-61
2022/08/02 12:56:38;;;;;;;2.20;0.73;;;;;;;;;;5073355;28;20135;-61
2022/08/02 12:59:04;;;;;;;3.10;0.70;;;;;;;;;;5071417;28;20040;-61
2022/08/02 13:01:30;;;;;;;4.25;0.70;;;;;;;;;;5072788;28;20035;-61
2022/08/02 13:03:57;;;;;;;3.58;0.85;;;;;;;;;;5073031;28;20021;-61
2022/08/02 13:06:23;;;;;;;2.88;0.68;;;;;;;;;;5073002;28;20028;-61
2022/08/02 13:08:50;;;;;;;1.95;0.68;;;;;;;;;;5072825;28;20024;-61
2022/08/02 13:11:16;;;;;;;3.53;0.82;;;;;;;;;;5086060;28;20024;-61
2022/08/02 13:13:42;;;;;;;3.47;0.77;;;;;;;;;;5072940;28;20025;-61
2022/08/02 13:16:08;;;;;;;1.90;0.80;;;;;;;;;;5071395;28;20024;-62
2022/08/02 13:18:34;;;;;;;3.08;1.02;;;;;;;;;;5072890;28;20031;-61
2022/08/02 13:21:03;;;;;;;4.20;0.75;;;;;;;;;;5072369;28;20032;-62
2022/08/02 13:23:29;;;;;;;4.00;1.10;;;;;;;;;;5072942;28;20033;-61
2022/08/02 13:25:55;;;;;;;3.95;0.73;;;;;;;;;;5072652;28;20020;-61
2022/08/02 13:28:21;;;;;;;2.90;0.80;;;;;;;;;;5072659;28;20029;-61
2022/08/02 13:30:48;;;;;;;2.38;0.73;;;;;;;;;;5074665;28;20036;-61
2022/08/02 13:33:14;;;;;;;3.55;0.60;;;;;;;;;;5072372;28;20029;-62
2022/08/02 13:35:40;;;;;;;4.22;0.70;;;;;;;;;;5072332;28;20028;-62
2022/08/02 13:38:06;;;;;;;2.72;0.80;;;;;;;;;;5072062;28;20549;-62
2022/08/02 13:40:32;;;;;;;5.03;1.02;;;;;;;;;;5071977;28;20021;-62
2022/08/02 13:42:58;;;;;;;3.80;0.73;;;;;;;;;;5072306;28;20031;-62
2022/08/02 13:45:24;;;;;;;3.35;0.80;;;;;;;;;;5066579;28;20128;-62
2022/08/02 13:47:50;;;;;;;4.65;0.82;;;;;;;;;;5070339;28;20069;-62
2022/08/02 13:50:17;;;;;;;5.20;0.75;;;;;;;;;;5071523;28;20025;-62
2022/08/02 13:52:43;;;;;;;4.53;0.70;;;;;;;;;;5072179;28;20036;-60
2022/08/02 13:55:09;;;;;;;3.00;0.93;;;;;;;;;;5072094;28;20024;-60
2022/08/02 13:57:35;;;;;;;3.10;0.90;;;;;;;;;;5071999;28;20045;-62
2022/08/02 14:00:01;;;;;;;1.85;0.57;;;;;;;;;;5071636;28;20102;-62
2022/08/02 14:02:27;;;;;;;3.42;0.88;;;;;;;;;;5072003;28;20028;-62
2022/08/02 14:04:53;;;;;;;3.17;0.80;;;;;;;;;;5070159;28;20036;-60
2022/08/02 14:07:19;;;;;;;3.45;0.70;;;;;;;;;;5071912;28;20502;-62
2022/08/02 14:09:46;;;;;;;2.67;0.80;;;;;;;;;;5076185;28;20026;-63
2022/08/02 14:12:12;;;;;;;2.17;0.77;;;;;;;;;;5076689;28;20033;-60
2022/08/02 14:14:38;;;;;;;6.45;0.90;;;;;;;;;;5069729;28;20029;-60
2022/08/02 14:17:04;;;;;;;4.07;0.75;;;;;;;;;;5071822;28;20028;-62
2022/08/02 14:19:30;;;;;;;3.30;0.73;;;;;;;;;;5071494;28;20025;-62
2022/08/02 14:21:57;;;;;;;3.17;1.00;;;;;;;;;;5069920;28;20108;-62
2022/08/02 14:24:23;;;;;;;1.67;0.70;;;;;;;;;;5071542;28;20107;-62
2022/08/02 14:26:49;;;;;;;3.08;0.80;;;;;;;;;;5054121;28;20039;-61
2022/08/02 14:29:16;;;;;;;2.38;0.75;;;;;;;;;;5071572;28;20021;-61
2022/08/02 14:31:42;;;;;;;3.17;0.80;;;;;;;;;;5075511;28;20090;-61
2022/08/02 14:34:08;;;;;;;3.65;0.75;;;;;;;;;;5071110;28;20073;-61
2022/08/02 14:36:36;;;;;;;4.65;1.05;;;;;;;;;;5071491;28;20021;-62
2022/08/02 14:39:02;;;;;;;1.80;0.63;;;;;;;;;;5069920;28;20028;-62
2022/08/02 14:41:28;;;;;;;3.88;0.90;;;;;;;;;;5071130;28;20407;-62
2022/08/02 14:44:02;;;;;;;2.47;0.70;;;;;;;;;;5057889;28;20063;-59
2022/08/02 14:46:29;;;;;;;3.90;0.68;;;;;;;;;;5071304;28;20028;-59
2022/08/02 14:48:55;;;;;;;3.67;0.75;;;;;;;;;;5066464;28;20121;-62